Date,TemperatureHighF,TemperatureAvgF,TemperatureLowF,DewpointHighF,DewpointAvgF,DewpointLowF,HumidityHigh,HumidityAvg,HumidityLow,PressureMaxIn,PressureMinIn,WindSpeedMaxMPH,WindSpeedAvgMPH,GustSpeedMaxMPH,PrecipitationSumIn
2013-1-1,46,41,36,41,38,35,97,91,81,29.84,29.28,11,5,20,0.01
2013-1-2,55,51,44,55,51,41,99,98,92,30.04,29.81,14,7,26,0.00
2013-1-3,58,54,52,55,53,50,99,96,88,30.30,30.04,10,5,20,0.00
2013-1-4,56,51,48,51,49,46,96,92,82,30.33,30.21,12,6,23,0.00
2013-1-5,56,52,49,53,50,47,99,93,84,30.22,30.11,14,6,26,0.00
2013-1-6,53,51,44,52,48,44,99,90,74,30.22,29.96,12,5,24,0.00
2013-1-7,55,52,49,54,52,48,99,97,89,29.96,29.76,16,7,30,0.07
2013-1-8,55,49,38,54,48,38,99,96,80,30.03,29.75,11,4,23,0.04
2013-1-9,58,38,30,44,36,30,99,92,59,30.01,29.81,3,0,6,0.00
2013-1-10,46,39,29,46,38,29,99,98,91,29.81,29.66,13,3,19,0.05
2013-1-11,50,42,32,46,40,32,99,94,81,29.80,29.55,8,2,11,0.01
2013-1-12,46,44,39,45,41,34,99,91,78,29.82,29.50,9,4,17,0.04
2013-1-13,39,36,30,39,35,30,99,97,81,29.92,29.82,9,3,15,0.04
2013-1-14,45,40,35,42,39,34,99,95,79,29.85,29.64,15,6,34,0.06
2013-1-15,45,37,32,39,36,32,99,94,78,29.69,29.48,6,2,12,0.00
2013-1-16,44,41,40,43,40,37,99,93,85,29.61,29.47,9,2,15,0.19
2013-1-17,50,45,42,48,44,41,99,96,83,29.61,29.28,19,5,34,0.02
2013-1-18,44,38,36,41,38,35,99,97,88,29.28,28.96,27,13,44,0.85
2013-1-19,40,37,36,40,36,30,99,95,76,29.34,29.02,12,5,22,0.06
2013-1-20,38,37,34,34,32,29,98,80,73,29.33,29.12,12,6,21,0.00
2013-1-21,42,36,34,41,34,31,99,94,77,29.12,29.07,7,2,14,0.19
2013-1-22,37,32,27,36,32,27,99,98,93,29.49,29.11,3,0,8,0.01
2013-1-23,41,37,31,37,34,30,99,92,79,29.61,29.45,11,3,15,0.00
2013-1-24,44,40,36,40,37,34,98,90,81,29.75,29.61,11,3,21,0.00
2013-1-25,50,46,42,48,44,39,99,92,85,29.65,29.08,24,9,47,0.66
2013-1-26,54,46,37,53,44,36,99,94,87,29.46,28.70,29,10,44,0.09
2013-1-27,54,42,36,54,39,35,99,92,73,29.21,28.71,21,10,37,0.33
2013-1-28,53,46,37,48,41,35,94,84,73,29.26,28.81,33,14,59,0.24
2013-1-29,58,50,45,56,47,41,99,89,81,29.18,28.87,24,10,41,0.18
2013-1-30,50,46,43,45,41,38,95,84,68,29.57,29.08,21,11,46,0.35
2013-1-31,51,45,41,46,40,38,97,83,71,29.50,29.25,30,12,48,0.31
2013-2-1,47,42,36,44,38,32,96,85,70,29.65,29.18,16,9,35,0.00
2013-2-2,50,40,32,39,34,31,98,81,57,30.02,29.65,9,3,20,0.00
2013-2-3,52,48,41,52,48,38,99,98,86,29.89,29.58,14,8,30,0.12
2013-2-4,50,44,34,50,40,33,99,86,70,29.69,29.42,21,10,38,0.21
2013-2-5,47,39,33,42,36,31,99,89,76,29.49,29.18,21,11,42,0.05
2013-2-6,50,42,34,37,34,32,92,76,54,30.02,29.49,16,7,32,0.00
2013-2-7,46,38,33,45,37,32,99,97,91,30.04,29.66,19,5,40,0.24
2013-2-8,48,43,39,45,42,38,99,95,90,30.04,29.94,8,4,14,0.00
2013-2-9,54,46,42,50,45,42,99,96,80,29.96,29.42,9,3,15,0.09
2013-2-10,46,44,41,45,44,41,99,99,97,29.42,28.94,11,4,21,0.67
2013-2-11,41,40,39,41,39,37,99,97,87,29.56,28.98,8,2,14,0.02
2013-2-12,43,41,39,43,40,39,99,96,89,29.73,29.56,10,3,18,0.01
2013-2-13,55,49,43,54,48,41,99,97,92,29.70,29.39,17,7,33,0.19
2013-2-14,52,46,41,48,43,40,99,91,70,29.78,29.42,17,6,30,0.02
2013-2-15,57,45,39,47,41,38,99,87,62,29.87,29.78,8,3,14,0.00
2013-2-16,60,50,44,51,46,40,99,86,72,29.83,29.77,16,5,28,0.00
2013-2-17,51,48,43,43,41,35,84,78,70,29.78,29.69,19,9,30,0.00
2013-2-18,52,45,41,40,37,34,90,76,57,29.81,29.69,15,7,24,0.00
2013-2-19,55,41,30,46,37,30,99,87,63,29.83,29.75,14,3,21,0.00
2013-2-20,70,42,34,62,37,32,99,84,68,29.88,29.77,103,8,103,0.05
2013-2-21,40,38,36,34,32,30,81,78,76,29.88,29.86,18,13,30,0.02
2013-3-20,42,40,39,39,38,36,95,90,86,29.60,29.56,10,5,18,0.01
2013-3-21,43,41,40,41,38,36,99,91,79,29.59,29.31,29,15,46,1.84
2013-3-22,42,41,40,42,41,40,99,99,99,29.26,29.21,28,24,41,0.07
2013-3-23,40,38,37,39,37,34,99,97,88,29.63,29.38,20,11,30,0.00
2013-3-24,37,36,35,34,31,27,88,82,71,29.76,29.62,23,14,36,0.17
2013-3-25,39,37,35,29,28,26,75,68,63,29.81,29.76,21,14,37,0.09
2013-3-26,40,35,32,34,30,26,99,84,65,29.80,29.73,17,8,30,0.01
2013-3-27,40,35,32,35,32,26,99,90,70,29.73,29.69,18,5,29,0.06
2013-3-28,41,36,32,34,30,26,99,80,61,29.71,29.61,17,7,27,0.07
2013-3-29,40,37,35,27,26,25,68,65,59,29.61,29.57,16,10,27,0.00
2013-3-30,45,39,35,29,26,24,71,60,48,29.66,29.56,16,8,24,0.00
2013-3-31,42,40,38,31,29,26,74,67,60,29.65,29.53,18,10,27,0.00
2013-4-1,40,39,36,31,29,27,74,68,63,29.64,29.52,21,12,31,0.02
2013-4-2,45,40,33,34,29,26,76,66,52,29.85,29.64,17,8,24,0.00
2013-4-3,47,41,33,34,31,26,92,68,47,29.93,29.85,17,6,27,0.00
2013-4-4,48,41,31,35,31,27,94,71,48,29.92,29.88,14,4,29,0.00
2013-4-5,49,40,33,40,32,27,94,73,53,30.00,29.89,9,2,18,0.01
2013-4-6,54,41,26,38,32,25,95,72,48,30.04,29.93,11,3,16,0.00
2013-4-7,48,42,37,38,35,31,88,76,55,29.93,29.51,18,7,29,0.01
2013-4-8,48,44,40,38,36,33,90,74,65,29.51,29.20,24,11,37,0.08
2013-4-9,47,42,39,39,37,35,92,84,74,29.31,29.17,20,8,33,0.02
2013-4-10,50,45,40,48,43,38,99,94,80,29.32,29.16,12,5,22,0.02
2013-4-11,50,46,43,48,45,43,99,98,86,29.16,28.96,11,4,19,0.41
2013-4-12,53,47,44,45,44,42,99,91,71,29.39,29.31,6,3,12,0.02
2013-4-13,57,49,39,56,47,39,99,94,71,29.40,29.09,25,8,37,0.04
2013-4-14,62,55,50,56,51,48,99,86,71,29.24,29.09,30,17,49,0.15
2013-4-15,65,55,51,50,47,45,91,77,52,29.50,29.18,25,13,43,0.05
2013-4-16,62,54,47,48,40,31,87,62,36,29.62,29.17,26,12,42,0.02
2013-4-17,61,54,48,56,49,40,99,85,71,29.60,28.91,31,16,53,0.11
2013-4-18,56,49,44,47,45,42,99,87,63,29.82,28.98,28,12,52,0.51
2013-4-19,64,50,39,46,41,37,99,75,39,30.17,29.83,9,4,16,0.00
2013-4-20,62,51,39,47,42,38,96,75,51,30.18,29.92,14,6,22,0.00
2013-4-21,58,50,44,50,44,40,99,81,58,29.91,29.65,16,7,27,0.07
2013-4-22,62,52,45,55,48,42,99,87,66,29.68,29.52,17,8,30,0.00
2013-4-23,68,56,47,53,49,45,99,80,57,29.83,29.65,14,6,23,0.00
2013-4-24,60,55,46,56,52,46,99,91,77,29.96,29.74,14,7,25,0.08
2013-4-25,58,51,45,48,44,39,99,78,53,29.89,29.83,14,6,32,0.37
2013-4-26,53,45,37,42,38,32,99,76,49,29.89,29.75,20,8,33,0.04
2013-4-27,59,49,39,41,38,34,89,67,41,29.89,29.81,13,4,19,0.00
2013-4-28,56,48,42,51,42,37,99,79,61,29.82,29.55,16,8,30,0.01
2013-4-29,58,48,40,45,39,35,93,72,45,29.96,29.62,19,9,35,0.00
2013-4-30,63,50,37,44,38,34,99,68,39,30.06,29.96,8,2,15,0.00
2013-5-1,65,53,42,53,42,35,94,71,40,30.01,29.95,11,4,21,0.00
2013-5-2,66,54,41,49,44,39,99,74,48,30.01,29.83,11,3,20,0.00
2013-5-3,61,55,50,53,48,46,99,79,61,29.83,29.56,17,9,30,0.07
2013-5-4,63,54,47,55,46,41,99,78,49,29.70,29.52,16,8,30,0.02
2013-5-5,70,59,53,54,52,48,99,78,50,29.79,29.69,14,7,23,0.00
2013-5-6,71,59,50,53,50,47,97,74,52,29.78,29.70,11,5,20,0.00
2013-5-7,65,56,46,55,48,45,99,77,58,29.73,29.37,16,5,24,0.00
2013-5-8,62,54,48,57,50,41,99,87,64,29.37,29.00,21,10,34,0.19
2013-5-9,57,50,47,52,46,40,96,85,71,29.27,28.87,23,13,40,0.14
2013-5-10,61,52,45,54,45,34,99,80,39,29.42,29.27,17,8,30,0.07
2013-5-11,55,49,44,50,43,39,99,83,59,29.66,29.38,24,10,38,0.11
2013-5-12,60,51,42,55,48,39,99,88,67,29.68,29.47,20,8,34,0.02
2013-5-13,54,48,43,44,40,37,92,75,57,29.54,29.41,22,9,40,0.05
2013-5-14,63,50,40,45,40,36,96,73,40,29.41,29.06,12,6,24,0.00
2013-5-15,57,49,43,45,41,36,93,76,54,29.24,29.12,16,7,39,0.02
2013-5-16,58,47,40,46,42,35,96,82,56,29.32,29.16,13,4,99,16.94
2013-5-17,61,50,35,48,42,35,99,78,50,29.62,29.32,8,2,18,0.00
2013-5-18,56,50,46,51,46,39,99,87,68,29.62,29.42,13,4,21,0.01
2013-5-19,70,57,50,54,50,46,99,78,49,29.73,29.47,8,2,14,0.01
2013-5-20,61,57,53,56,53,49,96,89,78,29.84,29.71,11,5,25,0.00
2013-5-21,68,57,49,53,49,47,98,77,54,29.89,29.83,14,7,25,0.00
2013-5-22,61,54,48,51,43,38,99,70,48,29.97,29.88,19,8,28,0.00
2013-5-23,56,49,41,43,39,35,93,70,48,29.90,29.78,17,7,32,0.02
2013-5-24,62,52,44,42,39,36,83,64,44,29.91,29.73,15,5,29,0.00
2013-5-25,70,57,40,61,43,38,96,63,38,29.93,29.84,8,2,15,0.19
2013-5-26,70,59,50,57,50,45,99,76,43,29.87,29.46,14,6,27,0.05
2013-5-27,64,54,48,52,48,42,99,82,50,29.45,29.12,17,6,36,0.35
2013-5-28,62,54,44,50,46,43,99,76,55,29.37,29.19,8,3,16,0.01
2013-5-29,74,60,50,54,50,47,99,73,45,29.69,29.36,10,3,22,0.22
2013-5-30,75,63,50,52,48,46,86,63,42,29.83,29.68,13,5,27,0.00
2013-5-31,65,56,48,56,49,40,99,77,55,29.98,29.83,14,5,21,24.17
2013-6-1,63,54,45,53,47,40,93,77,58,30.09,29.98,13,5,22,0.04
2013-6-2,70,59,51,53,49,46,98,72,50,30.16,30.08,6,2,11,0.00
2013-6-3,72,62,55,59,54,47,99,77,57,30.20,30.14,7,2,11,0.00
2013-6-4,69,62,52,56,49,41,88,66,40,30.15,29.96,11,4,17,0.00
2013-6-5,69,60,49,57,50,45,96,70,51,29.96,29.81,14,5,21,0.00
2013-6-6,67,60,50,58,52,49,99,75,57,29.94,29.83,13,4,21,0.00
2013-6-7,72,63,50,61,51,45,99,70,48,29.97,29.94,13,3,19,0.00
2013-6-8,77,66,53,56,51,47,85,62,44,29.97,29.79,8,2,12,0.00
2013-6-9,79,64,51,54,48,40,90,60,36,29.79,29.62,12,5,24,0.00
2013-6-10,70,61,50,54,49,44,94,66,48,29.63,29.49,18,5,27,0.02
2013-6-11,75,59,52,63,56,51,99,92,64,29.49,29.31,10,5,21,0.41
2013-6-12,70,58,54,59,55,51,99,89,53,29.39,29.22,11,3,18,0.28
2013-6-13,66,57,50,56,51,45,99,83,52,29.58,29.22,16,5,28,0.09
2013-6-14,67,56,50,58,52,47,99,84,60,29.58,29.07,16,8,32,0.07
2013-6-15,69,57,34,55,49,26,99,79,42,29.41,29.18,14,8,28,0.04
2013-6-16,73,58,52,55,52,48,99,86,47,29.62,29.42,11,4,103,0.11
2013-6-17,66,57,52,59,54,52,99,91,66,29.71,29.62,10,3,17,0.08
2013-6-18,81,63,47,60,54,47,99,78,43,29.69,29.62,10,3,16,0.00
2013-6-19,73,63,54,56,50,47,90,67,44,29.75,29.69,11,4,21,0.00
2013-6-20,76,63,53,57,52,49,92,71,44,29.71,29.46,12,3,18,0.00
2013-6-21,74,62,54,60,55,49,99,81,46,29.53,29.26,12,6,22,0.01
2013-6-22,65,58,54,58,54,52,99,88,65,29.27,29.09,17,9,31,0.12
2013-6-23,61,56,52,55,52,45,99,85,61,29.85,29.28,20,12,36,0.02
2013-6-24,68,58,48,51,48,46,99,74,49,29.97,29.84,11,5,19,0.00
2013-6-25,73,63,50,57,53,47,99,72,48,30.12,29.97,8,2,14,0.00
2013-6-26,74,64,54,56,51,47,93,66,42,30.19,30.12,8,3,15,0.00
2013-6-27,67,59,52,66,58,49,99,95,76,30.17,29.93,11,5,21,0.01
2013-6-28,67,61,55,63,59,52,99,93,81,29.94,29.78,19,8,30,0.01
2013-6-29,77,62,53,65,57,50,99,87,61,29.92,29.87,14,6,27,12.09
2013-6-30,69,62,55,62,54,46,99,77,57,29.91,29.66,17,8,34,0.17
2013-7-1,69,59,52,52,49,46,95,71,46,29.69,29.59,11,5,19,0.00
2013-7-2,68,59,55,64,56,49,99,89,73,29.58,29.12,15,6,26,0.13
2013-7-3,72,62,54,63,57,54,99,86,60,29.52,29.19,11,6,21,0.00
2013-7-4,68,63,54,63,55,48,99,77,58,29.93,29.49,17,8,29,0.01
2013-7-5,79,64,52,59,53,49,94,72,48,30.06,29.93,10,4,15,0.00
2013-7-6,83,68,54,64,55,50,91,68,42,30.13,30.01,8,3,14,0.00
2013-7-7,78,70,62,65,62,56,99,79,64,30.26,30.14,8,2,13,0.00
2013-7-8,83,71,61,64,60,56,96,70,48,30.26,30.17,9,3,14,0.00
2013-7-9,87,75,58,69,60,58,99,65,43,30.17,30.02,8,2,14,0.00
2013-7-10,79,71,58,65,61,58,99,74,59,30.04,29.98,10,2,15,0.00
2013-7-11,75,69,60,65,61,59,99,78,60,29.99,29.94,11,4,19,0.00
2013-7-12,94,74,55,64,57,52,95,63,28,29.96,29.91,5,1,11,0.00
2013-7-13,88,72,61,68,63,58,99,75,48,30.01,29.92,11,3,16,0.00
2013-7-14,87,71,59,65,58,50,94,69,33,30.00,29.88,11,3,14,0.00
2013-7-15,75,64,57,61,56,53,99,77,55,29.94,29.91,9,4,14,0.00
2013-7-16,82,69,59,60,58,55,95,70,44,29.93,29.89,9,2,14,0.00
2013-7-17,87,73,63,63,58,55,85,63,36,30.01,29.92,8,2,11,0.00
2013-7-18,85,72,58,64,58,54,92,64,43,30.03,29.99,11,3,16,0.00
2013-7-19,82,73,64,66,64,61,99,76,51,30.02,29.91,11,5,17,0.00
2013-7-20,77,71,63,68,63,61,99,80,61,29.92,29.83,13,4,22,0.00
2013-7-21,73,66,62,63,60,56,99,81,61,29.83,29.68,10,4,17,0.00
2013-7-22,78,70,62,67,64,59,99,82,66,29.69,29.55,11,3,20,0.00
2013-7-23,80,70,62,65,62,58,98,77,50,29.55,29.45,12,4,21,0.00
2013-7-24,76,70,64,62,59,55,90,71,52,29.49,29.43,13,5,24,0.01
2013-7-25,84,67,61,70,64,59,99,91,49,29.47,29.40,8,2,15,0.86
2013-7-26,81,68,57,68,60,57,99,80,50,29.49,29.44,11,2,16,0.09
2013-7-27,76,65,54,64,60,54,99,84,53,29.47,29.26,7,1,14,0.11
2013-7-28,81,65,52,69,59,52,99,84,46,29.27,29.18,10,2,16,0.19
2013-7-29,76,65,60,65,60,54,99,85,57,29.48,29.22,12,4,25,0.08
2013-7-30,76,66,54,64,54,51,95,70,46,29.53,29.42,15,5,31,0.05
2013-7-31,72,62,58,70,60,54,99,93,78,29.54,29.31,13,5,24,0.26
2013-8-1,78,69,65,68,66,63,99,91,67,29.34,29.16,14,6,27,0.11
2013-8-2,77,66,58,65,59,53,99,78,48,29.30,29.13,17,8,30,0.20
2013-8-3,76,62,56,60,56,51,99,82,44,29.55,29.29,15,6,28,0.17
2013-8-4,75,64,55,63,59,55,99,86,56,29.56,29.47,8,3,16,0.21
2013-8-5,71,63,59,60,55,48,99,79,52,29.61,29.42,14,4,24,0.02
2013-8-6,73,63,56,60,55,51,99,77,51,29.62,29.54,8,4,17,0.00
2013-8-7,82,65,54,60,54,49,98,69,40,29.71,29.56,10,2,17,0.00
2013-8-8,78,67,59,62,56,52,99,72,42,29.69,29.54,14,4,24,0.04
2013-8-9,67,62,58,59,54,51,99,79,59,29.86,29.58,12,5,21,0.00
2013-8-10,75,64,57,57,54,50,89,72,51,29.86,29.70,12,4,24,0.01
2013-8-11,70,60,54,56,53,47,99,78,46,29.72,29.64,16,6,26,0.00
2013-8-12,68,60,52,55,50,45,92,72,49,29.79,29.65,17,7,29,0.00
2013-8-13,72,62,55,62,57,48,99,84,65,29.82,29.76,9,4,15,0.06
2013-8-14,80,68,59,70,62,56,99,83,60,29.78,29.61,11,3,21,0.04
2013-8-15,75,67,62,68,65,61,99,96,73,29.61,29.40,12,6,27,0.65
2013-8-16,73,64,54,61,57,54,99,82,59,29.57,29.48,10,4,24,0.04
2013-8-17,77,65,56,67,60,56,99,84,65,29.51,29.11,17,8,34,0.02
2013-8-18,69,60,54,57,53,48,99,79,53,29.54,29.26,14,6,24,0.00
2013-8-19,72,62,52,59,54,50,98,77,49,29.90,29.55,18,5,24,0.00
2013-8-20,75,65,59,58,57,55,95,76,54,29.92,29.76,13,5,27,0.00
2013-8-21,76,68,62,63,60,58,96,79,57,29.76,29.70,14,7,27,0.00
2013-8-22,74,64,58,63,60,57,99,87,64,29.75,29.56,8,2,14,0.00
2013-8-23,65,61,56,64,60,56,99,98,87,29.59,29.49,10,2,21,0.21
2013-8-24,67,59,50,58,54,47,99,86,56,29.66,29.56,8,3,14,0.02
2013-8-25,72,64,57,66,58,55,99,85,64,29.81,29.58,8,2,14,0.02
2013-8-26,73,62,54,63,57,54,99,86,61,29.83,29.75,7,2,14,0.00
2013-8-27,73,63,57,66,61,56,99,93,77,29.87,29.74,10,2,14,0.00
2013-8-28,73,63,54,60,54,50,99,76,51,29.89,29.76,8,2,17,0.00
2013-8-29,75,66,59,64,60,57,98,82,58,29.78,29.70,12,6,24,0.00
2013-8-30,72,63,52,65,58,48,97,83,65,29.89,29.61,17,6,30,0.02
2013-8-31,66,58,49,50,48,44,88,71,53,30.09,29.89,15,6,26,0.00
2013-9-1,69,59,51,53,51,48,91,76,56,30.09,29.96,16,7,30,0.00
2013-9-2,75,65,58,64,60,51,99,86,69,29.99,29.92,15,6,28,0.00
2013-9-3,80,68,58,66,57,49,99,74,39,29.97,29.83,11,3,18,0.00
2013-9-4,80,65,53,58,53,45,99,71,34,29.83,29.55,14,4,24,0.00
2013-9-5,69,60,52,58,49,42,97,71,41,29.60,29.52,11,4,19,0.00
2013-9-6,69,53,42,52,46,41,99,79,39,29.55,29.47,8,2,17,0.04
2013-9-7,53,50,48,51,49,46,99,95,77,29.52,29.46,14,7,25,0.24
2013-9-8,64,54,47,56,50,46,99,87,61,29.60,29.48,11,4,21,0.13
2013-9-9,69,55,43,54,49,42,99,83,53,29.88,29.58,11,4,24,0.00
2013-9-10,68,57,48,54,51,48,99,82,57,29.97,29.87,14,6,27,0.00
2013-9-11,64,59,54,63,58,53,99,98,93,29.97,29.76,8,4,110,0.02
2013-9-12,67,62,56,66,62,56,99,99,99,29.77,29.61,11,5,23,0.09
2013-9-13,62,54,51,56,50,47,99,88,62,29.76,29.70,6,2,14,0.00
2013-9-14,70,55,46,52,46,40,99,75,36,29.75,29.63,8,2,15,0.00
2013-9-15,63,56,48,63,50,40,99,82,51,29.63,29.09,24,11,47,0.09
2013-9-16,58,50,46,46,43,41,90,77,58,29.26,29.17,19,10,35,0.02
2013-9-17,55,51,49,55,49,43,99,92,77,29.25,28.97,11,3,24,0.45
2013-9-18,59,52,48,52,48,44,99,85,61,29.49,29.10,16,6,30,0.02
2013-9-19,65,57,50,60,50,46,99,80,62,29.55,29.18,21,9,34,0.07
2013-9-20,69,58,50,53,49,46,86,73,50,29.69,29.55,11,4,81,0.00
2013-9-21,78,66,57,64,60,53,99,83,61,29.84,29.65,11,4,21,0.38
2013-9-22,81,69,60,62,60,59,98,76,50,29.93,29.83,8,4,15,0.00
2013-9-23,84,66,53,69,60,53,99,85,52,29.89,29.67,8,2,11,0.00
2013-9-24,75,60,58,65,59,58,99,96,66,29.67,29.51,9,3,14,0.01
2013-9-25,64,60,57,64,60,57,99,99,99,29.52,29.46,8,2,13,0.02
2013-9-26,63,60,57,62,59,57,99,99,99,29.58,29.50,11,4,18,0.01
2013-9-27,70,61,56,68,59,56,99,93,76,29.59,29.45,11,2,17,0.00
2013-9-28,69,60,54,60,58,54,99,93,71,29.45,29.33,10,2,17,0.00
2013-9-29,66,60,58,59,56,52,99,88,68,29.35,29.30,14,5,24,0.02
2013-9-30,61,59,56,61,58,56,99,98,89,29.30,29.24,14,6,21,0.02
2013-10-1,61,60,57,61,59,56,99,99,99,29.27,29.21,18,8,28,0.22
2013-10-2,74,63,60,66,62,59,99,96,73,29.22,29.18,14,6,26,0.32
2013-10-3,66,63,60,65,62,60,99,99,95,29.21,29.11,8,3,16,0.57
2013-10-4,65,60,54,62,59,54,99,97,85,29.55,29.13,9,4,19,0.02
2013-10-5,73,61,52,60,55,50,99,84,56,29.77,29.55,8,4,19,0.00
2013-10-6,70,64,57,66,60,50,99,88,74,29.76,29.71,14,6,22,0.01
2013-10-7,71,65,62,64,62,60,99,90,73,29.74,29.66,14,7,26,0.00
2013-10-8,65,60,55,62,57,53,99,90,65,29.91,29.70,11,5,20,0.00
2013-10-9,59,52,44,54,47,38,99,83,57,29.91,29.79,17,6,36,0.00
2013-10-10,63,50,38,45,40,37,98,73,45,30.00,29.87,11,2,19,0.00
2013-10-11,59,50,40,52,46,39,98,87,76,30.00,29.96,7,2,18,0.00
2013-10-12,56,54,51,55,50,48,99,90,81,29.96,29.77,7,2,16,0.00
2013-10-13,56,53,49,54,50,46,99,92,76,29.77,29.56,4,1,11,0.00
2013-10-14,53,50,48,53,49,47,99,99,95,29.57,29.52,3,1,8,0.04
2013-10-20,65,57,52,59,54,51,99,91,68,29.13,28.87,14,5,24,0.06
2013-10-21,64,57,51,63,57,50,99,99,99,29.14,28.80,17,5,24,0.40
2013-10-22,68,61,57,61,58,56,99,93,72,28.80,28.61,12,4,24,0.08
2013-10-23,57,53,45,57,48,42,99,85,58,29.34,28.62,18,7,27,0.01
2013-10-24,62,53,43,57,51,43,99,94,78,29.42,29.19,15,4,23,0.01
2013-10-25,66,59,55,61,58,55,99,95,75,29.19,28.93,15,7,24,0.18
2013-10-26,60,54,51,56,52,49,99,94,75,29.10,28.80,20,6,30,0.22
2013-10-27,60,53,50,54,50,47,99,89,75,28.75,28.61,18,10,37,0.13
2013-10-28,58,51,47,50,47,43,99,88,61,29.17,28.59,15,8,29,0.02
2013-10-29,55,47,42,47,43,40,99,87,66,29.59,29.17,16,6,29,0.02
2013-10-30,60,51,43,58,49,42,99,91,76,29.60,29.28,21,6,36,0.02
2013-10-31,60,51,47,51,48,45,99,88,67,29.53,29.35,16,7,29,0.05
2013-11-1,58,48,39,49,44,39,99,87,59,29.35,29.16,9,3,17,0.00
2013-11-2,54,46,36,49,43,35,99,89,75,29.17,28.54,27,10,45,0.17
2013-11-3,56,46,39,44,41,38,98,86,58,29.08,28.85,13,4,22,0.43
2013-11-4,53,43,34,48,39,33,99,87,64,29.02,28.84,9,3,21,0.00
2013-11-5,52,48,46,49,46,42,99,92,76,29.00,28.76,17,7,34,0.14
2013-11-6,51,47,42,51,47,42,99,99,98,29.12,28.92,8,4,16,0.05
2013-11-7,55,47,41,44,42,40,99,86,65,29.20,29.13,14,7,30,0.02
2013-11-8,54,45,39,44,40,38,96,86,67,29.23,29.14,11,5,24,0.00
2013-11-9,50,43,37,43,41,37,99,92,76,29.31,29.15,11,5,22,0.05
2013-11-10,54,45,36,54,42,36,99,91,68,29.68,29.31,9,2,18,0.15
2013-11-11,58,55,50,58,55,50,99,98,87,29.77,29.44,11,5,24,0.01
2013-11-12,54,47,42,49,44,40,99,89,64,30.12,29.76,11,4,23,0.00
2013-11-13,52,47,41,50,44,40,99,89,71,30.12,29.67,16,8,34,0.02
2013-11-14,50,47,44,45,42,40,95,85,70,30.19,29.75,14,6,25,0.02
2013-11-15,54,49,45,49,46,42,94,88,83,30.18,30.09,7,1,13,0.00
2013-11-16,56,52,50,53,49,46,99,91,84,30.08,29.96,8,2,17,0.00
2013-11-17,56,53,50,56,52,50,99,99,99,29.97,29.52,7,2,17,0.07
2013-11-18,52,43,36,52,42,36,99,97,82,29.53,29.48,8,2,20,0.12
2013-11-19,45,39,33,42,36,33,99,91,72,29.73,29.51,11,4,24,0.00
2013-11-20,49,45,42,46,40,33,99,82,64,29.50,29.26,24,9,37,0.32
2013-11-21,44,41,35,35,33,30,87,74,65,29.71,29.43,12,1,23,0.00
2013-11-22,56,39,32,38,34,31,99,84,52,29.90,29.71,5,0,10,0.00
2013-11-23,45,39,30,44,39,30,99,98,90,30.03,29.89,4,0,10,0.00
2013-11-24,46,45,44,45,45,44,99,99,99,30.11,30.02,4,0,10,0.00
2013-11-25,45,45,45,41,41,41,87,87,86,30.33,30.33,0,0,2,0.00
2013-11-26,49,46,42,46,44,41,99,94,87,30.34,30.26,4,1,12,0.00
2013-11-27,50,47,42,48,47,42,99,97,91,30.26,30.19,5,1,13,0.00
2013-11-28,52,49,48,52,49,47,99,99,99,30.23,30.12,4,0,11,0.01
2013-11-29,49,47,43,48,45,43,99,94,85,30.12,29.95,11,6,25,0.04
2013-11-30,53,45,38,47,44,38,99,97,79,30.12,30.00,9,2,14,0.00
2013-12-1,52,48,45,52,47,45,99,99,93,30.17,30.10,3,0,9,0.00
2013-12-2,49,47,45,48,46,42,99,96,86,30.15,29.99,6,0,12,0.00
2013-12-3,50,48,45,49,46,42,99,94,87,29.99,29.82,11,3,25,0.00
2013-12-4,49,42,36,45,39,36,99,92,74,30.08,29.89,6,1,17,0.00
2013-12-5,52,45,39,49,41,37,96,83,70,29.98,29.62,0,0,0,0.09
2013-12-6,51,45,37,50,44,37,99,98,90,29.96,29.90,0,0,0,0.00
2013-12-7,50,47,44,48,46,44,99,97,91,29.91,29.70,0,0,0,0.00
2013-12-8,54,51,45,50,49,45,99,94,88,29.73,29.66,0,0,0,0.00
2013-12-9,57,52,47,50,47,43,99,86,70,29.81,29.72,0,0,0,12.34
2013-12-10,58,55,52,54,50,45,98,86,65,29.79,29.70,0,0,0,0.00
2013-12-11,58,54,51,54,46,37,99,77,47,29.80,29.57,0,0,0,0.00
2013-12-12,61,58,55,59,56,49,99,95,81,29.57,29.43,0,0,0,0.05
2013-12-13,58,55,40,56,51,37,99,88,66,29.61,29.29,0,0,0,0.00
2013-12-14,54,50,40,54,47,32,99,90,71,29.61,29.09,0,0,0,1.48
2013-12-15,57,50,43,52,46,37,99,87,74,29.50,29.14,0,0,0,0.13
2013-12-16,50,44,40,49,41,37,99,91,79,29.65,29.16,0,0,0,0.30
2013-12-17,50,45,39,44,38,35,89,78,66,29.69,29.23,0,0,0,0.00
2013-12-18,58,50,40,54,47,36,99,89,77,29.22,28.35,0,0,0,0.46
2013-12-19,43,38,35,39,36,34,99,94,79,29.26,28.69,0,0,0,0.05
2013-12-20,53,46,37,53,44,36,99,93,82,29.43,29.07,0,0,0,0.34
2013-12-21,50,45,40,47,42,38,99,90,76,29.19,28.94,0,0,0,0.43
2013-12-22,42,39,35,40,37,35,99,93,83,29.25,29.02,0,0,0,0.12
2013-12-23,54,48,38,53,45,35,99,89,71,29.19,27.93,0,0,0,0.19
2013-12-24,44,40,36,41,34,29,99,80,61,28.26,27.97,0,0,0,0.19
2013-12-25,55,40,32,43,35,30,98,85,54,28.69,28.27,0,0,0,0.00
2013-12-26,53,42,36,51,39,35,99,89,70,28.92,28.01,0,0,0,0.27
2013-12-27,48,44,38,44,41,38,99,89,75,28.61,27.88,0,0,0,1.67
2013-12-28,48,40,37,41,38,36,99,94,76,29.27,28.61,0,0,0,0.01
2013-12-29,52,44,36,52,41,35,99,90,68,29.43,28.98,0,0,0,0.06
2013-12-30,52,47,42,52,44,39,99,93,80,29.19,28.82,0,0,0,0.45
2013-12-31,50,45,42,46,41,37,99,87,69,28.99,28.71,0,0,0,0.26
2014-1-1,52,45,42,52,43,39,99,95,85,28.80,28.16,0,0,0,0.19
2014-1-2,52,46,42,48,43,40,99,88,72,28.71,28.36,0,0,0,0.05